Time;durP1;ratioP1;P1;durP2;ratioP2;P2;SDS_P1;SDS_P2;PMS_P1;PMS_P2;Temp;Humidity;BMP_temperature;BMP_pressure;BME280_temperature;BME280_humidity;BME280_pressure;Samples;Min_cycle;Max_cycle;Signal;HPM_P1;HPM_P2
2024/03/19 00:02:24;;;;;;;6.95;6.13;;;;;;;;;;5023888;28;20017;-79
2024/03/19 00:04:50;;;;;;;7.68;6.18;;;;;;;;;;5033295;28;20078;-79
2024/03/19 00:07:16;;;;;;;6.10;5.28;;;;;;;;;;5036988;28;20024;-80
2024/03/19 00:09:42;;;;;;;6.35;5.60;;;;;;;;;;5022875;28;20021;-80
2024/03/19 00:12:09;;;;;;;8.70;7.25;;;;;;;;;;5018659;28;20117;-78
2024/03/19 00:14:35;;;;;;;8.35;7.43;;;;;;;;;;5000868;28;20076;-79
2024/03/19 00:17:02;;;;;;;6.40;5.80;;;;;;;;;;5012841;28;20492;-79
2024/03/19 00:19:28;;;;;;;6.00;5.40;;;;;;;;;;5034069;28;20014;-79
2024/03/19 00:21:54;;;;;;;7.70;6.93;;;;;;;;;;5008655;28;20496;-78
2024/03/19 00:24:20;;;;;;;8.88;7.10;;;;;;;;;;5037493;28;20026;-80
2024/03/19 00:26:46;;;;;;;8.25;6.63;;;;;;;;;;5034426;28;20737;-79
2024/03/19 00:29:13;;;;;;;11.30;7.55;;;;;;;;;;5038930;28;20563;-80
2024/03/19 00:31:39;;;;;;;8.73;7.22;;;;;;;;;;5033653;28;20049;-80
2024/03/19 00:34:08;;;;;;;7.75;6.55;;;;;;;;;;5028329;28;20360;-80
2024/03/19 00:36:35;;;;;;;6.90;6.20;;;;;;;;;;5016080;28;20018;-79
2024/03/19 00:39:01;;;;;;;7.28;6.28;;;;;;;;;;5010057;28;20029;-80
2024/03/19 00:41:27;;;;;;;7.72;6.70;;;;;;;;;;5019880;28;20021;-80
2024/03/19 00:43:54;;;;;;;8.63;6.97;;;;;;;;;;5027971;28;20077;-79
2024/03/19 00:46:20;;;;;;;6.63;6.00;;;;;;;;;;5039203;28;20040;-80
2024/03/19 00:48:46;;;;;;;5.50;4.97;;;;;;;;;;5040074;28;20021;-80
2024/03/19 00:51:12;;;;;;;6.22;5.63;;;;;;;;;;5033022;28;20116;-80
2024/03/19 00:53:38;;;;;;;8.80;7.82;;;;;;;;;;5040277;28;20427;-80
2024/03/19 00:56:06;;;;;;;9.95;8.13;;;;;;;;;;5024580;28;20088;-79
2024/03/19 00:58:32;;;;;;;9.20;7.35;;;;;;;;;;5046481;28;20341;-80
2024/03/19 01:00:58;;;;;;;7.10;6.03;;;;;;;;;;5040004;28;20045;-80
2024/03/19 01:03:25;;;;;;;10.55;8.30;;;;;;;;;;5024733;28;20022;-80
2024/03/19 01:05:51;;;;;;;9.40;8.25;;;;;;;;;;5047041;28;20053;-79
2024/03/19 01:08:18;;;;;;;11.20;9.25;;;;;;;;;;5026174;28;20065;-80
2024/03/19 01:10:44;;;;;;;9.95;8.43;;;;;;;;;;5033434;28;20037;-80
2024/03/19 01:13:10;;;;;;;9.80;7.22;;;;;;;;;;5027115;28;20033;-80
2024/03/19 01:15:37;;;;;;;10.57;8.38;;;;;;;;;;5008322;28;20130;-79
2024/03/19 01:18:04;;;;;;;11.07;8.95;;;;;;;;;;5019460;28;20554;-80
2024/03/19 01:20:31;;;;;;;10.70;8.23;;;;;;;;;;5022601;28;20022;-80
2024/03/19 01:22:58;;;;;;;11.35;8.77;;;;;;;;;;5014426;28;20022;-79
2024/03/19 01:25:25;;;;;;;12.45;9.60;;;;;;;;;;5031431;28;20428;-79
2024/03/19 01:27:53;;;;;;;12.70;9.70;;;;;;;;;;5034097;28;20026;-78
2024/03/19 01:30:19;;;;;;;12.23;8.57;;;;;;;;;;5045260;28;20072;-78
2024/03/19 01:32:45;;;;;;;10.65;8.23;;;;;;;;;;5049587;28;20037;-78
2024/03/19 01:35:12;;;;;;;11.68;9.00;;;;;;;;;;5036644;28;20034;-79
2024/03/19 01:37:38;;;;;;;9.35;7.07;;;;;;;;;;5038137;28;20018;-79
2024/03/19 01:40:04;;;;;;;8.25;6.60;;;;;;;;;;5023048;28;20025;-79
2024/03/19 01:42:30;;;;;;;9.27;7.60;;;;;;;;;;5019376;28;20022;-80
2024/03/19 01:45:13;;;;;;;15.30;9.38;;;;;;;;;;5020755;28;20036;-80
2024/03/19 01:47:39;;;;;;;;;;;;;;;;;;5045863;28;20096;-77
2024/03/19 01:50:10;;;;;;;13.20;10.10;;;;;;;;;;5046479;28;19912;-78
2024/03/19 01:52:38;;;;;;;11.88;9.80;;;;;;;;;;5046997;28;20014;-78
2024/03/19 01:55:04;;;;;;;12.80;9.10;;;;;;;;;;5024339;28;20153;-79
2024/03/19 01:57:30;;;;;;;14.70;9.13;;;;;;;;;;5045919;28;20025;-78
2024/03/19 01:59:57;;;;;;;12.68;8.93;;;;;;;;;;5042359;28;20109;-79
2024/03/19 02:02:30;;;;;;;9.32;6.95;;;;;;;;;;5029555;28;20021;-79
2024/03/19 02:04:57;;;;;;;9.68;7.55;;;;;;;;;;5017741;28;20095;-79
2024/03/19 02:07:23;;;;;;;7.63;6.53;;;;;;;;;;5016046;28;20026;-79
2024/03/19 02:09:49;;;;;;;9.73;6.60;;;;;;;;;;5028353;28;20025;-80
2024/03/19 02:12:17;;;;;;;8.63;6.03;;;;;;;;;;5010803;28;20060;-80
2024/03/19 02:14:43;;;;;;;8.02;6.28;;;;;;;;;;5017419;28;20482;-79
2024/03/19 02:17:09;;;;;;;7.40;5.93;;;;;;;;;;5033322;28;20036;-80
2024/03/19 02:19:35;;;;;;;6.35;4.90;;;;;;;;;;5017621;28;20048;-80
2024/03/19 02:22:01;;;;;;;5.97;5.32;;;;;;;;;;5033973;28;20163;-80
2024/03/19 02:24:27;;;;;;;7.15;5.57;;;;;;;;;;5029505;28;20022;-79
2024/03/19 02:26:54;;;;;;;4.95;4.25;;;;;;;;;;5018877;28;20022;-80
2024/03/19 02:29:20;;;;;;;6.60;5.13;;;;;;;;;;5031387;28;20148;-80
2024/03/19 02:31:46;;;;;;;5.93;4.60;;;;;;;;;;5019685;28;20056;-80
2024/03/19 02:34:12;;;;;;;6.78;5.03;;;;;;;;;;5029220;28;20021;-80
2024/03/19 02:36:38;;;;;;;7.07;5.72;;;;;;;;;;5017901;28;20026;-79
2024/03/19 02:39:05;;;;;;;7.53;6.63;;;;;;;;;;5034863;28;20053;-80
2024/03/19 02:41:31;;;;;;;7.50;5.55;;;;;;;;;;5045708;28;20024;-78
2024/03/19 02:43:57;;;;;;;5.05;4.50;;;;;;;;;;5053600;28;20025;-78
2024/03/19 02:46:24;;;;;;;5.03;4.18;;;;;;;;;;5048429;28;20025;-78
2024/03/19 02:48:50;;;;;;;4.55;4.03;;;;;;;;;;5037465;28;20045;-79
2024/03/19 02:51:16;;;;;;;4.50;4.10;;;;;;;;;;5041660;28;20021;-79
2024/03/19 02:53:42;;;;;;;3.92;3.42;;;;;;;;;;5038722;28;20033;-79
2024/03/19 02:56:11;;;;;;;4.88;4.10;;;;;;;;;;5047007;28;20087;-80
2024/03/19 02:58:37;;;;;;;5.45;4.22;;;;;;;;;;5035119;28;20018;-77
2024/03/19 03:01:03;;;;;;;4.65;3.58;;;;;;;;;;5036552;28;20392;-79
2024/03/19 03:03:30;;;;;;;4.10;3.70;;;;;;;;;;5021405;28;20025;-79
2024/03/19 03:05:56;;;;;;;6.90;5.65;;;;;;;;;;5037725;28;20033;-80
2024/03/19 03:08:22;;;;;;;6.70;5.10;;;;;;;;;;5024383;28;20030;-78
2024/03/19 03:10:48;;;;;;;5.28;4.40;;;;;;;;;;5040628;28;20021;-80
2024/03/19 03:13:14;;;;;;;5.80;4.55;;;;;;;;;;5039162;28;20079;-78
2024/03/19 03:15:40;;;;;;;6.35;5.43;;;;;;;;;;5037131;28;20054;-79
2024/03/19 03:18:07;;;;;;;6.97;5.70;;;;;;;;;;5038995;28;20106;-79
2024/03/19 03:20:33;;;;;;;6.72;5.82;;;;;;;;;;5043660;28;20017;-79
2024/03/19 03:22:59;;;;;;;9.95;6.90;;;;;;;;;;5029157;28;20404;-80
2024/03/19 03:25:26;;;;;;;8.68;7.35;;;;;;;;;;5026284;28;20026;-79
2024/03/19 03:27:53;;;;;;;11.85;8.70;;;;;;;;;;5023315;28;20021;-79
2024/03/19 03:30:19;;;;;;;11.75;8.57;;;;;;;;;;5038410;28;20030;-79
2024/03/19 03:32:46;;;;;;;14.38;8.85;;;;;;;;;;5040521;28;20089;-80
2024/03/19 03:35:15;;;;;;;12.55;9.70;;;;;;;;;;5020192;28;20388;-79
2024/03/19 03:37:41;;;;;;;12.85;9.07;;;;;;;;;;5022818;28;20033;-79
2024/03/19 03:40:22;;;;;;;10.40;8.77;;;;;;;;;;5040822;28;20014;-80
2024/03/19 03:42:49;;;;;;;11.63;9.05;;;;;;;;;;5039058;28;20024;-78
2024/03/19 03:45:22;;;;;;;13.30;8.73;;;;;;;;;;5021727;28;20412;-79
2024/03/19 03:47:48;;;;;;;11.75;8.85;;;;;;;;;;5018267;28;20056;-79
2024/03/19 03:50:15;;;;;;;13.10;8.40;;;;;;;;;;5038523;28;20408;-78
2024/03/19 03:52:41;;;;;;;11.70;8.60;;;;;;;;;;5023130;28;20085;-78
2024/03/19 03:55:09;;;;;;;10.25;7.85;;;;;;;;;;5024689;28;20025;-77
2024/03/19 03:57:35;;;;;;;9.82;8.20;;;;;;;;;;5038260;28;20029;-78
2024/03/19 04:00:08;;;;;;;10.30;8.05;;;;;;;;;;5027106;28;20049;-78
2024/03/19 04:02:38;;;;;;;9.85;7.78;;;;;;;;;;5023984;28;20013;-77
2024/03/19 04:05:04;;;;;;;8.70;6.38;;;;;;;;;;5015555;28;20071;-79
2024/03/19 04:07:31;;;;;;;8.10;6.65;;;;;;;;;;5020013;28;20120;-79
2024/03/19 04:09:57;;;;;;;11.13;8.13;;;;;;;;;;5035812;28;20521;-79
2024/03/19 04:12:23;;;;;;;9.43;7.25;;;;;;;;;;5035986;28;20140;-79
2024/03/19 04:14:50;;;;;;;10.45;7.72;;;;;;;;;;5041886;28;20075;-80
2024/03/19 04:17:17;;;;;;;10.68;7.95;;;;;;;;;;5018339;28;20041;-80
2024/03/19 04:19:43;;;;;;;10.90;7.97;;;;;;;;;;5026518;28;20468;-81
2024/03/19 04:22:09;;;;;;;11.63;9.02;;;;;;;;;;5039657;28;20006;-79
2024/03/19 04:24:35;;;;;;;9.70;7.28;;;;;;;;;;5032079;28;20021;-79
2024/03/19 04:27:01;;;;;;;10.00;7.28;;;;;;;;;;5035814;28;20093;-79
2024/03/19 04:29:28;;;;;;;9.57;6.90;;;;;;;;;;5050343;28;20036;-79
2024/03/19 04:31:54;;;;;;;10.70;7.70;;;;;;;;;;5040309;28;20033;-78
2024/03/19 04:34:20;;;;;;;9.07;6.97;;;;;;;;;;5033306;28;20053;-77
2024/03/19 04:36:47;;;;;;;10.38;7.55;;;;;;;;;;5031631;28;20028;-78
2024/03/19 04:39:15;;;;;;;8.95;6.80;;;;;;;;;;5038180;28;20052;-79
2024/03/19 04:41:42;;;;;;;12.85;8.88;;;;;;;;;;5040903;28;20144;-78
2024/03/19 04:44:08;;;;;;;13.65;8.98;;;;;;;;;;5046934;28;20037;-77
2024/03/19 04:46:35;;;;;;;11.50;8.13;;;;;;;;;;5039599;28;20080;-79
2024/03/19 04:49:01;;;;;;;10.43;7.60;;;;;;;;;;5033431;28;20049;-79
2024/03/19 04:51:28;;;;;;;9.35;7.47;;;;;;;;;;5015670;28;20018;-80
2024/03/19 04:53:54;;;;;;;7.50;5.85;;;;;;;;;;5007070;28;20061;-80
2024/03/19 04:56:20;;;;;;;10.60;8.32;;;;;;;;;;5021644;28;20025;-79
2024/03/19 04:58:47;;;;;;;10.90;8.43;;;;;;;;;;5004641;28;20471;-80
2024/03/19 05:01:17;;;;;;;12.02;9.20;;;;;;;;;;5025542;28;20031;-80
2024/03/19 05:03:44;;;;;;;16.73;12.07;;;;;;;;;;5009991;28;20082;-77
2024/03/19 05:06:10;;;;;;;16.85;12.10;;;;;;;;;;5022252;28;20077;-79
2024/03/19 05:08:40;;;;;;;16.58;12.95;;;;;;;;;;5020671;28;20022;-79
2024/03/19 05:11:06;;;;;;;18.35;12.90;;;;;;;;;;5022136;28;20554;-79
2024/03/19 05:13:32;;;;;;;12.65;10.10;;;;;;;;;;5023425;28;20133;-78
2024/03/19 05:15:58;;;;;;;12.30;9.20;;;;;;;;;;5037609;28;20036;-77
2024/03/19 05:18:24;;;;;;;12.23;8.93;;;;;;;;;;5037247;28;20026;-77
2024/03/19 05:20:51;;;;;;;13.20;8.75;;;;;;;;;;5031081;28;20029;-77
2024/03/19 05:23:17;;;;;;;10.35;7.80;;;;;;;;;;5019180;28;20022;-78
2024/03/19 05:25:43;;;;;;;8.82;7.40;;;;;;;;;;5028202;28;20024;-78
2024/03/19 05:28:09;;;;;;;8.55;6.63;;;;;;;;;;5025241;28;20033;-79
2024/03/19 05:30:36;;;;;;;10.13;6.95;;;;;;;;;;5038768;28;20017;-77
2024/03/19 05:33:02;;;;;;;10.07;8.13;;;;;;;;;;5027868;28;20042;-77
2024/03/19 05:35:28;;;;;;;13.43;9.55;;;;;;;;;;5025815;28;20029;-79
2024/03/19 05:37:55;;;;;;;13.38;9.45;;;;;;;;;;5017072;28;20095;-78
2024/03/19 05:40:21;;;;;;;12.35;8.85;;;;;;;;;;5009752;28;20029;-80
2024/03/19 05:42:47;;;;;;;10.00;7.75;;;;;;;;;;5011288;28;20025;-77
2024/03/19 05:45:14;;;;;;;8.70;6.78;;;;;;;;;;5004806;28;20049;-80
2024/03/19 05:47:41;;;;;;;11.45;8.30;;;;;;;;;;5016526;28;20057;-78
2024/03/19 05:50:10;;;;;;;10.10;7.85;;;;;;;;;;5035577;28;20018;-78
2024/03/19 05:52:37;;;;;;;9.40;7.15;;;;;;;;;;5034609;28;20026;-77
2024/03/19 05:55:03;;;;;;;11.48;7.53;;;;;;;;;;5023136;28;20036;-77
2024/03/19 05:57:30;;;;;;;9.98;7.53;;;;;;;;;;5047057;28;20018;-77
2024/03/19 05:59:56;;;;;;;12.18;8.90;;;;;;;;;;5048192;28;20081;-77
2024/03/19 06:02:22;;;;;;;16.10;10.35;;;;;;;;;;5044718;28;20025;-76
2024/03/19 06:04:48;;;;;;;13.60;10.18;;;;;;;;;;5047455;28;20048;-80
2024/03/19 06:07:15;;;;;;;15.82;11.02;;;;;;;;;;5032266;28;20026;-79
2024/03/19 06:09:47;;;;;;;18.02;12.18;;;;;;;;;;5019446;28;20014;-79
2024/03/19 06:12:13;;;;;;;15.85;11.35;;;;;;;;;;5039925;28;20026;-76
2024/03/19 06:14:40;;;;;;;11.90;9.00;;;;;;;;;;5037446;28;20048;-77
2024/03/19 06:17:06;;;;;;;14.73;10.35;;;;;;;;;;5052922;28;20025;-78
2024/03/19 06:19:33;;;;;;;16.10;11.30;;;;;;;;;;5029863;28;20047;-79
2024/03/19 06:21:59;;;;;;;11.98;9.32;;;;;;;;;;5011799;28;20022;-79
2024/03/19 06:24:26;;;;;;;12.10;8.73;;;;;;;;;;5023344;28;20029;-79
2024/03/19 06:26:53;;;;;;;9.73;7.55;;;;;;;;;;5043470;28;20021;-79
2024/03/19 06:29:20;;;;;;;8.95;6.75;;;;;;;;;;5026101;28;20045;-79
2024/03/19 06:31:46;;;;;;;8.45;6.95;;;;;;;;;;5029691;28;20117;-80
2024/03/19 06:34:12;;;;;;;8.02;6.68;;;;;;;;;;5023084;28;20030;-79
2024/03/19 06:36:38;;;;;;;6.05;5.45;;;;;;;;;;5013741;28;20026;-77
2024/03/19 06:39:04;;;;;;;7.28;6.03;;;;;;;;;;5046678;28;20072;-77
2024/03/19 06:41:34;;;;;;;8.68;5.88;;;;;;;;;;5033030;28;20041;-78
2024/03/19 06:44:00;;;;;;;7.35;5.47;;;;;;;;;;5034376;28;20514;-80
2024/03/19 06:46:26;;;;;;;7.43;5.75;;;;;;;;;;5033361;28;20052;-80
2024/03/19 06:48:53;;;;;;;14.10;9.00;;;;;;;;;;5007317;28;20104;-79
2024/03/19 06:51:19;;;;;;;15.32;10.90;;;;;;;;;;5022971;28;20056;-80
2024/03/19 06:53:45;;;;;;;17.27;11.70;;;;;;;;;;5026780;28;20025;-78
2024/03/19 06:56:12;;;;;;;12.18;9.30;;;;;;;;;;5023802;28;20041;-79
2024/03/19 06:58:44;;;;;;;16.00;10.70;;;;;;;;;;5034977;28;20025;-79
2024/03/19 07:01:10;;;;;;;11.75;8.90;;;;;;;;;;5017577;28;20026;-79
2024/03/19 07:03:37;;;;;;;14.60;9.35;;;;;;;;;;5024676;28;20018;-80
2024/03/19 07:06:03;;;;;;;11.40;8.70;;;;;;;;;;5023612;28;20030;-78
2024/03/19 07:08:30;;;;;;;10.43;7.85;;;;;;;;;;5020071;28;20104;-79
2024/03/19 07:10:59;;;;;;;9.30;7.15;;;;;;;;;;5004659;28;20034;-76
2024/03/19 07:13:26;;;;;;;8.65;6.47;;;;;;;;;;5001499;28;20033;-77
2024/03/19 07:15:53;;;;;;;6.88;5.95;;;;;;;;;;5018994;28;20033;-78
2024/03/19 07:18:20;;;;;;;6.80;5.40;;;;;;;;;;5001936;28;20018;-78
2024/03/19 07:20:51;;;;;;;9.57;6.70;;;;;;;;;;5020636;28;20480;-79
2024/03/19 07:23:17;;;;;;;14.05;10.77;;;;;;;;;;5009703;28;20022;-79
2024/03/19 07:25:44;;;;;;;13.77;9.65;;;;;;;;;;5021277;28;20026;-80
2024/03/19 07:28:10;;;;;;;9.70;7.38;;;;;;;;;;5020426;28;20030;-79
2024/03/19 07:30:37;;;;;;;8.95;6.97;;;;;;;;;;5011953;28;20049;-78
2024/03/19 07:33:03;;;;;;;8.63;6.18;;;;;;;;;;5021429;28;20026;-79
2024/03/19 07:35:30;;;;;;;6.97;6.05;;;;;;;;;;5023771;28;20054;-79
2024/03/19 07:37:56;;;;;;;7.13;4.68;;;;;;;;;;5014767;28;20535;-79
2024/03/19 07:40:22;;;;;;;5.18;4.68;;;;;;;;;;5024572;28;20492;-79
2024/03/19 07:42:52;;;;;;;5.75;4.70;;;;;;;;;;5021377;28;20108;-79
2024/03/19 07:45:18;;;;;;;5.68;4.63;;;;;;;;;;5022213;28;20038;-79
2024/03/19 07:47:45;;;;;;;5.10;4.22;;;;;;;;;;5016330;28;20041;-77
2024/03/19 07:50:18;;;;;;;4.60;4.05;;;;;;;;;;5021929;28;20444;-80
2024/03/19 07:52:44;;;;;;;6.35;5.53;;;;;;;;;;5004706;28;20120;-80
2024/03/19 07:55:11;;;;;;;7.68;5.85;;;;;;;;;;5029559;28;20025;-80
2024/03/19 07:57:37;;;;;;;8.75;6.50;;;;;;;;;;5027466;28;20028;-79
2024/03/19 08:00:11;;;;;;;6.28;5.05;;;;;;;;;;5010340;28;20156;-79
2024/03/19 08:02:39;;;;;;;6.30;4.40;;;;;;;;;;5018726;28;20112;-78
2024/03/19 08:05:09;;;;;;;6.00;4.70;;;;;;;;;;5028095;28;20037;-79
2024/03/19 08:07:40;;;;;;;4.25;3.85;;;;;;;;;;5011488;28;20054;-79
2024/03/19 08:10:07;;;;;;;;;;;;;;;;;;5027079;28;20026;-79
2024/03/19 08:12:37;;;;;;;5.13;4.35;;;;;;;;;;5009996;28;19948;-78
2024/03/19 08:15:03;;;;;;;7.50;5.70;;;;;;;;;;5031095;28;20065;-79
2024/03/19 08:17:33;;;;;;;7.00;6.30;;;;;;;;;;5035476;28;20018;-79
2024/03/19 08:20:00;;;;;;;6.65;5.50;;;;;;;;;;5021355;28;20105;-79
2024/03/19 08:22:26;;;;;;;9.30;6.35;;;;;;;;;;5013339;28;20029;-79
2024/03/19 08:24:53;;;;;;;6.05;5.25;;;;;;;;;;5009415;28;20114;-79
2024/03/19 08:27:20;;;;;;;4.95;4.40;;;;;;;;;;5003741;28;20037;-79
2024/03/19 08:29:46;;;;;;;6.15;5.13;;;;;;;;;;5035813;28;20014;-80
2024/03/19 08:32:13;;;;;;;5.70;4.65;;;;;;;;;;5027436;28;20105;-80
2024/03/19 08:34:39;;;;;;;4.60;3.80;;;;;;;;;;5023552;28;20156;-80
2024/03/19 08:37:05;;;;;;;4.20;3.22;;;;;;;;;;5031720;28;20047;-79
2024/03/19 08:39:32;;;;;;;3.95;3.38;;;;;;;;;;5034135;28;20103;-79
2024/03/19 08:41:58;;;;;;;2.70;2.50;;;;;;;;;;5018460;28;20120;-79
2024/03/19 08:44:24;;;;;;;3.33;3.03;;;;;;;;;;5019375;28;20041;-78
2024/03/19 08:46:51;;;;;;;3.30;3.00;;;;;;;;;;5021789;28;20029;-78
2024/03/19 08:49:17;;;;;;;3.63;3.28;;;;;;;;;;5025938;28;20037;-78
2024/03/19 08:51:43;;;;;;;3.80;3.40;;;;;;;;;;5012337;28;20025;-79
2024/03/19 08:54:10;;;;;;;4.95;4.10;;;;;;;;;;5002737;28;20057;-78
2024/03/19 08:56:37;;;;;;;4.85;4.20;;;;;;;;;;5008733;28;20026;-78
2024/03/19 08:59:03;;;;;;;6.57;5.22;;;;;;;;;;5020601;28;20028;-79
2024/03/19 09:01:30;;;;;;;6.05;4.60;;;;;;;;;;5021576;28;20098;-77
2024/03/19 09:03:56;;;;;;;5.10;4.13;;;;;;;;;;5003218;28;20054;-77
2024/03/19 09:06:23;;;;;;;3.30;3.00;;;;;;;;;;5035333;28;20044;-77
2024/03/19 09:08:49;;;;;;;2.50;2.30;;;;;;;;;;5018996;28;20045;-76
2024/03/19 09:11:16;;;;;;;2.35;2.15;;;;;;;;;;5019267;28;20485;-77
2024/03/19 09:13:42;;;;;;;2.83;2.10;;;;;;;;;;5023282;28;20093;-77
2024/03/19 09:16:08;;;;;;;1.85;1.70;;;;;;;;;;5007462;28;20133;-79
2024/03/19 09:18:34;;;;;;;1.60;1.50;;;;;;;;;;5027478;28;20104;-78
2024/03/19 09:21:00;;;;;;;1.70;1.60;;;;;;;;;;5034287;28;20094;-78
2024/03/19 09:23:27;;;;;;;1.38;1.27;;;;;;;;;;5029314;28;20084;-78
2024/03/19 09:25:53;;;;;;;1.27;1.20;;;;;;;;;;5038459;28;20010;-77
2024/03/19 09:28:20;;;;;;;1.00;1.00;;;;;;;;;;5030208;28;20006;-79
2024/03/19 09:30:46;;;;;;;1.08;1.00;;;;;;;;;;5014163;28;20033;-79
2024/03/19 09:33:13;;;;;;;1.52;1.42;;;;;;;;;;5030060;28;20109;-79
2024/03/19 09:35:39;;;;;;;0.90;0.90;;;;;;;;;;5021233;28;20026;-79
2024/03/19 09:38:05;;;;;;;0.90;0.90;;;;;;;;;;5019336;28;20080;-78
2024/03/19 09:40:31;;;;;;;1.20;1.10;;;;;;;;;;5027039;28;20013;-79
2024/03/19 09:42:58;;;;;;;1.17;1.17;;;;;;;;;;5022654;28;20036;-78
2024/03/19 09:45:29;;;;;;;0.80;0.80;;;;;;;;;;5019476;28;20022;-77
2024/03/19 09:47:55;;;;;;;1.10;1.08;;;;;;;;;;5028639;28;20113;-79
2024/03/19 09:50:23;;;;;;;1.38;1.00;;;;;;;;;;5003822;28;20057;-79
2024/03/19 09:52:53;;;;;;;2.15;1.00;;;;;;;;;;5006043;28;20027;-79
2024/03/19 09:55:19;;;;;;;0.90;0.90;;;;;;;;;;5029789;28;20018;-78
2024/03/19 09:57:49;;;;;;;0.93;0.93;;;;;;;;;;5024768;28;20026;-79
2024/03/19 10:00:26;;;;;;;1.15;0.63;;;;;;;;;;5000539;28;20014;-79
2024/03/19 10:02:53;;;;;;;0.55;0.55;;;;;;;;;;5018920;28;20033;-78
2024/03/19 10:05:20;;;;;;;0.50;0.50;;;;;;;;;;5039337;28;20385;-78
2024/03/19 10:07:50;;;;;;;0.88;0.50;;;;;;;;;;5023228;28;20022;-79
2024/03/19 10:10:17;;;;;;;0.93;0.93;;;;;;;;;;5006340;28;20029;-78
2024/03/19 10:12:43;;;;;;;0.90;0.90;;;;;;;;;;5019437;28;20184;-78
2024/03/19 10:15:18;;;;;;;1.10;1.10;;;;;;;;;;5020888;28;20104;-78
2024/03/19 10:17:44;;;;;;;1.52;1.13;;;;;;;;;;5018506;28;20487;-79
2024/03/19 10:20:11;;;;;;;1.30;1.20;;;;;;;;;;4999756;28;20030;-78
2024/03/19 10:22:38;;;;;;;0.80;0.80;;;;;;;;;;5018283;28;20022;-79
2024/03/19 10:25:07;;;;;;;0.80;0.80;;;;;;;;;;5017798;28;20333;-79
2024/03/19 10:27:34;;;;;;;0.80;0.80;;;;;;;;;;5025253;28;20543;-77
2024/03/19 10:30:01;;;;;;;0.63;0.63;;;;;;;;;;5016366;28;20021;-79
2024/03/19 10:32:27;;;;;;;5.05;3.72;;;;;;;;;;5024386;28;20094;-79
2024/03/19 10:34:54;;;;;;;3.58;3.10;;;;;;;;;;5017272;28;20144;-78
2024/03/19 10:37:21;;;;;;;5.35;4.68;;;;;;;;;;5026859;28;20049;-79
2024/03/19 10:39:47;;;;;;;5.00;3.60;;;;;;;;;;5017594;28;20117;-79
2024/03/19 10:42:14;;;;;;;5.22;3.80;;;;;;;;;;5030031;28;20044;-80
2024/03/19 10:44:41;;;;;;;4.97;3.80;;;;;;;;;;5021542;28;20049;-79
2024/03/19 10:47:12;;;;;;;4.22;3.72;;;;;;;;;;5033619;28;20037;-78
2024/03/19 10:49:38;;;;;;;5.90;5.20;;;;;;;;;;5035231;28;20086;-78
2024/03/19 10:52:20;;;;;;;5.65;4.20;;;;;;;;;;5016543;28;20054;-78
2024/03/19 10:54:47;;;;;;;4.70;3.10;;;;;;;;;;5013643;28;20022;-78
2024/03/19 10:57:15;;;;;;;2.30;2.10;;;;;;;;;;4999675;28;20038;-79
2024/03/19 10:59:42;;;;;;;2.33;2.13;;;;;;;;;;5037346;28;20107;-79
2024/03/19 11:02:11;;;;;;;1.50;1.40;;;;;;;;;;5009803;28;20026;-79
2024/03/19 11:04:37;;;;;;;3.03;2.72;;;;;;;;;;5039177;28;20029;-79
2024/03/19 11:07:04;;;;;;;3.17;2.08;;;;;;;;;;5027110;28;20109;-78
2024/03/19 11:09:31;;;;;;;4.30;3.35;;;;;;;;;;5005795;28;20068;-79
2024/03/19 11:11:58;;;;;;;4.40;4.00;;;;;;;;;;5039970;28;20392;-79
2024/03/19 11:14:24;;;;;;;5.20;4.25;;;;;;;;;;5027646;28;20113;-80
2024/03/19 11:16:51;;;;;;;7.20;5.72;;;;;;;;;;5028833;28;20045;-79
2024/03/19 11:19:21;;;;;;;4.65;4.10;;;;;;;;;;5028949;28;20102;-79
2024/03/19 11:21:51;;;;;;;9.18;5.78;;;;;;;;;;5001857;28;20018;-79
2024/03/19 11:24:22;;;;;;;5.78;5.18;;;;;;;;;;5010859;28;20051;-78
2024/03/19 11:26:48;;;;;;;5.68;4.00;;;;;;;;;;5025456;28;20038;-78
2024/03/19 11:29:15;;;;;;;7.80;4.65;;;;;;;;;;5002486;28;20113;-79
2024/03/19 11:31:44;;;;;;;4.90;4.32;;;;;;;;;;5022974;28;20489;-78
2024/03/19 11:34:15;;;;;;;3.95;3.55;;;;;;;;;;5033451;28;20062;-79
2024/03/19 11:36:50;;;;;;;2.72;2.53;;;;;;;;;;5023863;28;20117;-79
2024/03/19 11:39:17;;;;;;;3.53;3.08;;;;;;;;;;5023568;28;20026;-80
2024/03/19 11:41:43;;;;;;;3.50;3.20;;;;;;;;;;5007890;28;20052;-79
2024/03/19 11:44:13;;;;;;;3.47;2.65;;;;;;;;;;5025013;28;20073;-79
2024/03/19 11:46:39;;;;;;;5.40;4.18;;;;;;;;;;5030823;28;20052;-79
2024/03/19 11:49:05;;;;;;;4.07;3.67;;;;;;;;;;5024844;28;20033;-79
2024/03/19 11:51:33;;;;;;;3.80;2.45;;;;;;;;;;5026490;28;20022;-78
2024/03/19 11:54:03;;;;;;;2.40;2.20;;;;;;;;;;5001748;28;20034;-79
2024/03/19 11:56:30;;;;;;;2.08;1.65;;;;;;;;;;5009053;28;20026;-79
2024/03/19 11:58:56;;;;;;;1.70;1.60;;;;;;;;;;5020191;28;20087;-78
2024/03/19 12:01:22;;;;;;;2.17;1.73;;;;;;;;;;5009121;28;20021;-79
2024/03/19 12:03:48;;;;;;;1.30;1.20;;;;;;;;;;5022460;28;20033;-79
2024/03/19 12:06:16;;;;;;;1.42;1.10;;;;;;;;;;5004133;28;20108;-79
2024/03/19 12:08:43;;;;;;;1.60;1.00;;;;;;;;;;5009940;28;20026;-78
2024/03/19 12:11:10;;;;;;;2.65;1.60;;;;;;;;;;5020676;28;20029;-79
2024/03/19 12:13:36;;;;;;;2.08;1.90;;;;;;;;;;5030186;28;20085;-77
2024/03/19 12:16:02;;;;;;;3.30;2.60;;;;;;;;;;5033231;28;20026;-79
2024/03/19 12:18:28;;;;;;;2.70;1.90;;;;;;;;;;5052667;28;20049;-79
2024/03/19 12:20:55;;;;;;;2.42;1.67;;;;;;;;;;5046145;28;20022;-78
2024/03/19 12:23:21;;;;;;;1.20;1.10;;;;;;;;;;5027341;28;20029;-80
2024/03/19 12:25:47;;;;;;;2.97;2.50;;;;;;;;;;5033663;28;20079;-80
2024/03/19 12:28:17;;;;;;;1.67;1.58;;;;;;;;;;5044980;28;20073;-80
2024/03/19 12:30:46;;;;;;;1.80;1.70;;;;;;;;;;5010191;28;20029;-80
2024/03/19 12:33:37;;;;;;;1.80;1.70;;;;;;;;;;5016473;28;20048;-80
2024/03/19 12:36:04;;;;;;;1.85;1.70;;;;;;;;;;5018657;28;20476;-78
2024/03/19 12:38:30;;;;;;;1.65;1.40;;;;;;;;;;5027872;28;20491;-78
2024/03/19 12:40:59;;;;;;;2.60;2.40;;;;;;;;;;5022559;28;20032;-77
2024/03/19 12:43:25;;;;;;;2.15;1.95;;;;;;;;;;5018870;28;20101;-79
2024/03/19 12:45:51;;;;;;;3.22;2.22;;;;;;;;;;5023435;28;20060;-80
2024/03/19 12:48:18;;;;;;;1.67;1.52;;;;;;;;;;5027994;28;20021;-79
2024/03/19 12:50:44;;;;;;;1.70;1.60;;;;;;;;;;5020664;28;20037;-78
2024/03/19 12:53:10;;;;;;;3.50;2.25;;;;;;;;;;5027593;28;20032;-78
2024/03/19 12:55:36;;;;;;;3.05;2.30;;;;;;;;;;5002503;28;20033;-79
2024/03/19 12:58:03;;;;;;;1.70;1.60;;;;;;;;;;5002844;28;20037;-80
2024/03/19 13:00:29;;;;;;;2.00;1.65;;;;;;;;;;5019466;28;20022;-78
2024/03/19 13:02:55;;;;;;;2.92;1.92;;;;;;;;;;5019099;28;20025;-79
2024/03/19 13:05:22;;;;;;;2.42;1.98;;;;;;;;;;5009249;28;20331;-77
2024/03/19 13:07:50;;;;;;;3.85;2.53;;;;;;;;;;5018150;28;20040;-79
2024/03/19 13:10:20;;;;;;;2.35;2.15;;;;;;;;;;5010402;28;20112;-78
2024/03/19 13:12:47;;;;;;;2.20;1.63;;;;;;;;;;5008492;28;20381;-78
2024/03/19 13:15:14;;;;;;;1.40;1.30;;;;;;;;;;5022522;28;20064;-79
2024/03/19 13:17:40;;;;;;;1.80;1.48;;;;;;;;;;5021033;28;20032;-78
2024/03/19 13:20:07;;;;;;;1.20;1.05;;;;;;;;;;5036658;28;20120;-78
2024/03/19 13:22:34;;;;;;;0.88;0.88;;;;;;;;;;5005865;28;20080;-77
2024/03/19 13:25:00;;;;;;;2.47;1.88;;;;;;;;;;5019321;28;20574;-78
2024/03/19 13:27:26;;;;;;;2.40;2.20;;;;;;;;;;5019373;28;20022;-79
2024/03/19 13:29:52;;;;;;;2.00;1.80;;;;;;;;;;5001895;28;20032;-78
2024/03/19 13:32:21;;;;;;;2.92;2.05;;;;;;;;;;5026108;28;20053;-77
2024/03/19 13:34:47;;;;;;;3.20;2.50;;;;;;;;;;5030355;28;20028;-78
2024/03/19 13:37:14;;;;;;;1.75;1.65;;;;;;;;;;5013992;28;20030;-78
2024/03/19 13:39:40;;;;;;;2.35;1.52;;;;;;;;;;5029936;28;20021;-78
2024/03/19 13:42:06;;;;;;;2.00;1.83;;;;;;;;;;5026774;28;20022;-79
2024/03/19 13:44:33;;;;;;;2.45;1.75;;;;;;;;;;5004387;28;20057;-78
2024/03/19 13:46:59;;;;;;;1.13;1.13;;;;;;;;;;5032364;28;20033;-79
2024/03/19 13:49:27;;;;;;;1.05;0.98;;;;;;;;;;5041664;28;20066;-78
2024/03/19 13:51:53;;;;;;;0.80;0.80;;;;;;;;;;5028927;28;20025;-77
2024/03/19 13:54:20;;;;;;;1.42;1.10;;;;;;;;;;5024446;28;20120;-78
2024/03/19 13:56:50;;;;;;;1.20;1.10;;;;;;;;;;5016599;28;20041;-78
2024/03/19 13:59:18;;;;;;;1.35;1.20;;;;;;;;;;5029431;28;20014;-79
2024/03/19 14:01:44;;;;;;;1.15;1.05;;;;;;;;;;5035413;28;20041;-78
2024/03/19 14:04:11;;;;;;;1.70;1.25;;;;;;;;;;5017428;28;20025;-79
2024/03/19 14:06:40;;;;;;;6.55;3.00;;;;;;;;;;5020022;28;20022;-79
2024/03/19 14:09:06;;;;;;;2.60;2.08;;;;;;;;;;5000772;28;20018;-79
2024/03/19 14:11:33;;;;;;;2.05;1.20;;;;;;;;;;5018164;28;20120;-78
2024/03/19 14:13:59;;;;;;;2.08;1.80;;;;;;;;;;5022571;28;20151;-78
2024/03/19 14:16:26;;;;;;;2.22;1.27;;;;;;;;;;5034306;28;20197;-78
2024/03/19 14:18:52;;;;;;;1.00;0.90;;;;;;;;;;5016159;28;20030;-78
2024/03/19 14:21:18;;;;;;;1.17;0.80;;;;;;;;;;5042452;28;20080;-77
2024/03/19 14:23:44;;;;;;;0.50;0.50;;;;;;;;;;5049471;28;20021;-78
2024/03/19 14:26:10;;;;;;;0.65;0.65;;;;;;;;;;5024439;28;20021;-76
2024/03/19 14:28:37;;;;;;;1.65;1.10;;;;;;;;;;5035171;28;20076;-78
2024/03/19 14:31:03;;;;;;;1.48;1.00;;;;;;;;;;5031851;28;20060;-77
2024/03/19 14:33:30;;;;;;;1.20;1.10;;;;;;;;;;5024924;28;20465;-80
2024/03/19 14:35:57;;;;;;;1.10;0.75;;;;;;;;;;5018071;28;20033;-79
2024/03/19 14:38:23;;;;;;;0.95;0.90;;;;;;;;;;5034826;28;20025;-78
2024/03/19 14:40:49;;;;;;;1.35;1.10;;;;;;;;;;5034075;28;20017;-78